sensor_id;sensor_type;location;lat;lon;timestamp;temperature;humidity
15203;DHT22;7702;51.046;5.184;2023-09-12T00:01:41;20.30;99.90
15203;DHT22;7702;51.046;5.184;2023-09-12T00:04:07;20.20;99.90
15203;DHT22;7702;51.046;5.184;2023-09-12T00:06:32;20.20;99.90
15203;DHT22;7702;51.046;5.184;2023-09-12T00:08:58;20.20;99.90
15203;DHT22;7702;51.046;5.184;2023-09-12T00:11:24;20.10;99.90
15203;DHT22;7702;51.046;5.184;2023-09-12T00:13:51;20.10;99.90
15203;DHT22;7702;51.046;5.184;2023-09-12T00:16:17;20.10;99.90
15203;DHT22;7702;51.046;5.184;2023-09-12T00:18:43;20.10;99.90
15203;DHT22;7702;51.046;5.184;2023-09-12T00:21:09;20.10;99.90
15203;DHT22;7702;51.046;5.184;2023-09-12T00:23:35;20.10;99.90
15203;DHT22;7702;51.046;5.184;2023-09-12T00:26:00;20.10;99.90
15203;DHT22;7702;51.046;5.184;2023-09-12T00:28:26;20.10;99.90
15203;DHT22;7702;51.046;5.184;2023-09-12T00:30:52;20.00;99.90
15203;DHT22;7702;51.046;5.184;2023-09-12T00:33:18;20.00;99.90
15203;DHT22;7702;51.046;5.184;2023-09-12T00:35:44;20.00;99.90
15203;DHT22;7702;51.046;5.184;2023-09-12T00:38:10;20.00;99.90
15203;DHT22;7702;51.046;5.184;2023-09-12T00:40:36;20.10;99.90
15203;DHT22;7702;51.046;5.184;2023-09-12T00:43:03;20.10;99.90
15203;DHT22;7702;51.046;5.184;2023-09-12T00:45:29;20.10;99.90
15203;DHT22;7702;51.046;5.184;2023-09-12T00:47:56;20.10;99.90
15203;DHT22;7702;51.046;5.184;2023-09-12T00:50:24;20.10;99.90
15203;DHT22;7702;51.046;5.184;2023-09-12T00:52:52;20.00;99.90
15203;DHT22;7702;51.046;5.184;2023-09-12T00:55:19;20.10;99.90
15203;DHT22;7702;51.046;5.184;2023-09-12T00:57:45;20.00;99.90
15203;DHT22;7702;51.046;5.184;2023-09-12T01:00:12;19.90;99.90
15203;DHT22;7702;51.046;5.184;2023-09-12T01:02:45;19.80;99.90
15203;DHT22;7702;51.046;5.184;2023-09-12T01:05:13;19.80;99.90
15203;DHT22;7702;51.046;5.184;2023-09-12T01:07:41;19.70;99.90
15203;DHT22;7702;51.046;5.184;2023-09-12T01:10:07;19.60;99.90
15203;DHT22;7702;51.046;5.184;2023-09-12T01:12:33;19.50;99.90
15203;DHT22;7702;51.046;5.184;2023-09-12T01:14:59;19.50;99.90
15203;DHT22;7702;51.046;5.184;2023-09-12T01:17:26;19.40;99.90
15203;DHT22;7702;51.046;5.184;2023-09-12T01:19:52;19.40;99.90
15203;DHT22;7702;51.046;5.184;2023-09-12T01:27:51;19.20;99.90
15203;DHT22;7702;51.046;5.184;2023-09-12T01:30:20;19.20;99.90
15203;DHT22;7702;51.046;5.184;2023-09-12T01:32:47;19.20;99.90
15203;DHT22;7702;51.046;5.184;2023-09-12T01:35:13;19.10;99.90
15203;DHT22;7702;51.046;5.184;2023-09-12T01:37:38;19.10;99.90
15203;DHT22;7702;51.046;5.184;2023-09-12T01:40:05;19.00;99.90
15203;DHT22;7702;51.046;5.184;2023-09-12T01:42:40;19.00;99.90
15203;DHT22;7702;51.046;5.184;2023-09-12T01:45:09;19.00;99.90
15203;DHT22;7702;51.046;5.184;2023-09-12T01:47:36;19.00;99.90
15203;DHT22;7702;51.046;5.184;2023-09-12T01:50:03;19.10;99.90
15203;DHT22;7702;51.046;5.184;2023-09-12T01:52:30;19.20;99.90
15203;DHT22;7702;51.046;5.184;2023-09-12T01:54:56;19.20;99.90
15203;DHT22;7702;51.046;5.184;2023-09-12T01:57:23;19.20;99.90
15203;DHT22;7702;51.046;5.184;2023-09-12T01:59:49;19.20;99.90
15203;DHT22;7702;51.046;5.184;2023-09-12T02:02:16;19.20;99.90
15203;DHT22;7702;51.046;5.184;2023-09-12T02:04:44;19.10;99.90
15203;DHT22;7702;51.046;5.184;2023-09-12T02:07:12;19.20;99.90
15203;DHT22;7702;51.046;5.184;2023-09-12T02:09:38;19.10;99.90
15203;DHT22;7702;51.046;5.184;2023-09-12T02:12:04;19.10;99.90
15203;DHT22;7702;51.046;5.184;2023-09-12T02:14:30;19.10;99.90
15203;DHT22;7702;51.046;5.184;2023-09-12T02:16:55;19.00;99.90
15203;DHT22;7702;51.046;5.184;2023-09-12T02:19:21;19.00;99.90
15203;DHT22;7702;51.046;5.184;2023-09-12T02:21:46;19.00;99.90
15203;DHT22;7702;51.046;5.184;2023-09-12T02:24:12;18.90;99.90
15203;DHT22;7702;51.046;5.184;2023-09-12T02:26:38;18.80;99.90
15203;DHT22;7702;51.046;5.184;2023-09-12T02:29:04;18.80;99.90
15203;DHT22;7702;51.046;5.184;2023-09-12T02:31:31;18.80;99.90
15203;DHT22;7702;51.046;5.184;2023-09-12T02:33:57;18.80;99.90
15203;DHT22;7702;51.046;5.184;2023-09-12T02:36:23;18.70;99.90
15203;DHT22;7702;51.046;5.184;2023-09-12T02:38:48;18.70;99.90
15203;DHT22;7702;51.046;5.184;2023-09-12T02:41:14;18.70;99.90
15203;DHT22;7702;51.046;5.184;2023-09-12T02:43:39;18.70;99.90
15203;DHT22;7702;51.046;5.184;2023-09-12T02:46:05;18.60;99.90
15203;DHT22;7702;51.046;5.184;2023-09-12T02:48:31;18.50;99.90
15203;DHT22;7702;51.046;5.184;2023-09-12T02:50:56;18.50;99.90
15203;DHT22;7702;51.046;5.184;2023-09-12T02:53:22;18.50;99.90
15203;DHT22;7702;51.046;5.184;2023-09-12T02:55:48;18.50;99.90
15203;DHT22;7702;51.046;5.184;2023-09-12T02:58:13;18.40;99.90
15203;DHT22;7702;51.046;5.184;2023-09-12T03:00:39;18.40;99.90
15203;DHT22;7702;51.046;5.184;2023-09-12T03:03:07;18.40;99.90
15203;DHT22;7702;51.046;5.184;2023-09-12T03:05:34;18.50;99.90
15203;DHT22;7702;51.046;5.184;2023-09-12T03:08:00;18.50;99.90
15203;DHT22;7702;51.046;5.184;2023-09-12T03:10:26;18.60;99.90
15203;DHT22;7702;51.046;5.184;2023-09-12T03:12:51;18.60;99.90
15203;DHT22;7702;51.046;5.184;2023-09-12T03:15:17;18.60;99.90
15203;DHT22;7702;51.046;5.184;2023-09-12T03:17:43;18.70;99.90
15203;DHT22;7702;51.046;5.184;2023-09-12T03:20:09;18.60;99.90
15203;DHT22;7702;51.046;5.184;2023-09-12T03:22:35;18.70;99.90
15203;DHT22;7702;51.046;5.184;2023-09-12T03:25:04;18.70;99.90
15203;DHT22;7702;51.046;5.184;2023-09-12T03:27:31;18.80;99.90
15203;DHT22;7702;51.046;5.184;2023-09-12T03:29:57;18.80;99.90
15203;DHT22;7702;51.046;5.184;2023-09-12T03:32:24;18.80;99.90
15203;DHT22;7702;51.046;5.184;2023-09-12T03:34:50;18.80;99.90
15203;DHT22;7702;51.046;5.184;2023-09-12T03:37:15;18.90;99.90
15203;DHT22;7702;51.046;5.184;2023-09-12T03:39:41;18.90;99.90
15203;DHT22;7702;51.046;5.184;2023-09-12T03:42:07;18.90;99.90
15203;DHT22;7702;51.046;5.184;2023-09-12T03:44:32;18.90;99.90
15203;DHT22;7702;51.046;5.184;2023-09-12T03:46:58;18.90;99.90
15203;DHT22;7702;51.046;5.184;2023-09-12T03:49:24;18.90;99.90
15203;DHT22;7702;51.046;5.184;2023-09-12T03:51:49;18.90;99.90
15203;DHT22;7702;51.046;5.184;2023-09-12T03:54:15;18.90;99.90
15203;DHT22;7702;51.046;5.184;2023-09-12T03:56:41;18.90;99.90
15203;DHT22;7702;51.046;5.184;2023-09-12T03:59:06;18.80;99.90
15203;DHT22;7702;51.046;5.184;2023-09-12T04:01:32;18.90;99.90
15203;DHT22;7702;51.046;5.184;2023-09-12T04:03:58;19.00;99.90
15203;DHT22;7702;51.046;5.184;2023-09-12T04:06:23;18.90;99.90
15203;DHT22;7702;51.046;5.184;2023-09-12T04:08:49;19.00;99.90
15203;DHT22;7702;51.046;5.184;2023-09-12T04:11:15;18.90;99.90
15203;DHT22;7702;51.046;5.184;2023-09-12T04:13:41;18.90;99.90
15203;DHT22;7702;51.046;5.184;2023-09-12T04:16:07;18.90;99.90
15203;DHT22;7702;51.046;5.184;2023-09-12T04:18:33;18.90;99.90
15203;DHT22;7702;51.046;5.184;2023-09-12T04:20:58;18.90;99.90
15203;DHT22;7702;51.046;5.184;2023-09-12T04:23:27;18.90;99.90
15203;DHT22;7702;51.046;5.184;2023-09-12T04:25:52;18.90;99.90
15203;DHT22;7702;51.046;5.184;2023-09-12T04:28:18;18.90;99.90
15203;DHT22;7702;51.046;5.184;2023-09-12T04:30:44;18.90;99.90
15203;DHT22;7702;51.046;5.184;2023-09-12T04:33:10;19.00;99.90
15203;DHT22;7702;51.046;5.184;2023-09-12T04:35:35;19.00;99.90
15203;DHT22;7702;51.046;5.184;2023-09-12T04:38:02;19.00;99.90
15203;DHT22;7702;51.046;5.184;2023-09-12T04:40:28;19.00;99.90
15203;DHT22;7702;51.046;5.184;2023-09-12T04:42:54;19.10;99.90
15203;DHT22;7702;51.046;5.184;2023-09-12T04:45:20;19.10;99.90
15203;DHT22;7702;51.046;5.184;2023-09-12T04:47:45;19.00;99.90
15203;DHT22;7702;51.046;5.184;2023-09-12T04:50:11;19.00;99.90
15203;DHT22;7702;51.046;5.184;2023-09-12T04:52:40;19.00;99.90
15203;DHT22;7702;51.046;5.184;2023-09-12T04:55:06;19.00;99.90
15203;DHT22;7702;51.046;5.184;2023-09-12T04:57:32;19.10;99.90
15203;DHT22;7702;51.046;5.184;2023-09-12T04:59:58;19.10;99.90
15203;DHT22;7702;51.046;5.184;2023-09-12T05:02:24;19.10;99.90
15203;DHT22;7702;51.046;5.184;2023-09-12T05:04:51;19.10;99.90
15203;DHT22;7702;51.046;5.184;2023-09-12T05:07:17;19.10;99.90
15203;DHT22;7702;51.046;5.184;2023-09-12T05:09:42;19.00;99.90
15203;DHT22;7702;51.046;5.184;2023-09-12T05:12:08;19.10;99.90
15203;DHT22;7702;51.046;5.184;2023-09-12T05:14:34;19.00;99.90
15203;DHT22;7702;51.046;5.184;2023-09-12T05:16:59;19.00;99.90
15203;DHT22;7702;51.046;5.184;2023-09-12T05:19:27;19.00;99.90
15203;DHT22;7702;51.046;5.184;2023-09-12T05:21:53;19.00;99.90
15203;DHT22;7702;51.046;5.184;2023-09-12T05:24:18;19.00;99.90
15203;DHT22;7702;51.046;5.184;2023-09-12T05:26:44;19.00;99.90
15203;DHT22;7702;51.046;5.184;2023-09-12T05:29:10;19.00;99.90
15203;DHT22;7702;51.046;5.184;2023-09-12T05:31:35;19.00;99.90
15203;DHT22;7702;51.046;5.184;2023-09-12T05:34:02;19.00;99.90
15203;DHT22;7702;51.046;5.184;2023-09-12T05:36:27;19.00;99.90
15203;DHT22;7702;51.046;5.184;2023-09-12T05:38:53;18.90;99.90
15203;DHT22;7702;51.046;5.184;2023-09-12T05:41:19;18.90;99.90
15203;DHT22;7702;51.046;5.184;2023-09-12T05:43:44;19.00;99.90
15203;DHT22;7702;51.046;5.184;2023-09-12T05:46:10;19.00;99.90
15203;DHT22;7702;51.046;5.184;2023-09-12T05:48:35;19.00;99.90
15203;DHT22;7702;51.046;5.184;2023-09-12T05:51:01;19.10;99.90
15203;DHT22;7702;51.046;5.184;2023-09-12T05:53:27;19.10;99.90
15203;DHT22;7702;51.046;5.184;2023-09-12T05:55:53;19.10;99.90
15203;DHT22;7702;51.046;5.184;2023-09-12T05:58:19;19.10;99.90
15203;DHT22;7702;51.046;5.184;2023-09-12T06:00:44;19.10;99.90
15203;DHT22;7702;51.046;5.184;2023-09-12T06:03:14;19.10;99.90
15203;DHT22;7702;51.046;5.184;2023-09-12T06:05:40;19.10;99.90
15203;DHT22;7702;51.046;5.184;2023-09-12T06:08:05;19.20;99.90
15203;DHT22;7702;51.046;5.184;2023-09-12T06:10:31;19.20;99.90
15203;DHT22;7702;51.046;5.184;2023-09-12T06:12:57;19.20;99.90
15203;DHT22;7702;51.046;5.184;2023-09-12T06:15:23;19.20;99.90
15203;DHT22;7702;51.046;5.184;2023-09-12T06:17:48;19.30;99.90
15203;DHT22;7702;51.046;5.184;2023-09-12T06:20:14;19.30;99.90
15203;DHT22;7702;51.046;5.184;2023-09-12T06:22:39;19.40;99.90
15203;DHT22;7702;51.046;5.184;2023-09-12T06:25:06;19.30;99.90
15203;DHT22;7702;51.046;5.184;2023-09-12T06:27:31;19.40;99.90
15203;DHT22;7702;51.046;5.184;2023-09-12T06:29:57;19.30;99.90
15203;DHT22;7702;51.046;5.184;2023-09-12T06:32:23;19.30;99.90
15203;DHT22;7702;51.046;5.184;2023-09-12T06:34:48;19.40;99.90
15203;DHT22;7702;51.046;5.184;2023-09-12T06:37:15;19.40;99.90
15203;DHT22;7702;51.046;5.184;2023-09-12T06:39:41;19.40;99.90
15203;DHT22;7702;51.046;5.184;2023-09-12T06:42:08;19.50;99.90
15203;DHT22;7702;51.046;5.184;2023-09-12T06:44:34;19.70;99.90
15203;DHT22;7702;51.046;5.184;2023-09-12T06:46:59;19.80;99.90
15203;DHT22;7702;51.046;5.184;2023-09-12T06:49:25;20.00;99.90
15203;DHT22;7702;51.046;5.184;2023-09-12T06:51:51;20.00;99.90
15203;DHT22;7702;51.046;5.184;2023-09-12T06:54:17;20.20;99.90
15203;DHT22;7702;51.046;5.184;2023-09-12T06:56:42;20.30;99.90
15203;DHT22;7702;51.046;5.184;2023-09-12T06:59:08;20.20;99.90
15203;DHT22;7702;51.046;5.184;2023-09-12T07:01:34;20.20;99.90
15203;DHT22;7702;51.046;5.184;2023-09-12T07:04:00;20.30;99.90
15203;DHT22;7702;51.046;5.184;2023-09-12T07:06:26;20.30;99.90
15203;DHT22;7702;51.046;5.184;2023-09-12T07:08:52;20.50;99.90
15203;DHT22;7702;51.046;5.184;2023-09-12T07:11:18;20.60;99.90
15203;DHT22;7702;51.046;5.184;2023-09-12T07:13:44;20.90;99.90
15203;DHT22;7702;51.046;5.184;2023-09-12T07:16:10;21.10;99.90
15203;DHT22;7702;51.046;5.184;2023-09-12T07:18:36;21.40;99.90
15203;DHT22;7702;51.046;5.184;2023-09-12T07:21:03;21.50;99.90
15203;DHT22;7702;51.046;5.184;2023-09-12T07:26:04;21.90;99.90
15203;DHT22;7702;51.046;5.184;2023-09-12T07:28:30;21.80;99.90
15203;DHT22;7702;51.046;5.184;2023-09-12T07:30:56;21.80;99.90
15203;DHT22;7702;51.046;5.184;2023-09-12T07:33:23;21.90;99.90
15203;DHT22;7702;51.046;5.184;2023-09-12T07:35:52;21.80;99.90
15203;DHT22;7702;51.046;5.184;2023-09-12T07:38:18;21.80;99.90
15203;DHT22;7702;51.046;5.184;2023-09-12T07:40:45;21.80;99.90
15203;DHT22;7702;51.046;5.184;2023-09-12T07:43:10;21.90;99.90
15203;DHT22;7702;51.046;5.184;2023-09-12T07:45:36;22.00;99.90
15203;DHT22;7702;51.046;5.184;2023-09-12T07:48:09;22.10;99.90
15203;DHT22;7702;51.046;5.184;2023-09-12T07:50:37;22.20;99.90
15203;DHT22;7702;51.046;5.184;2023-09-12T07:53:06;22.30;99.90
15203;DHT22;7702;51.046;5.184;2023-09-12T07:55:38;22.60;99.90
15203;DHT22;7702;51.046;5.184;2023-09-12T07:58:18;22.60;99.90
15203;DHT22;7702;51.046;5.184;2023-09-12T08:00:44;22.60;99.90
15203;DHT22;7702;51.046;5.184;2023-09-12T08:03:09;22.90;99.90
15203;DHT22;7702;51.046;5.184;2023-09-12T08:05:36;22.90;99.90
15203;DHT22;7702;51.046;5.184;2023-09-12T08:08:02;23.00;99.90
15203;DHT22;7702;51.046;5.184;2023-09-12T08:10:27;23.10;99.90
15203;DHT22;7702;51.046;5.184;2023-09-12T08:12:54;23.40;99.90
15203;DHT22;7702;51.046;5.184;2023-09-12T08:15:19;23.90;99.90
15203;DHT22;7702;51.046;5.184;2023-09-12T08:17:45;23.80;99.90
15203;DHT22;7702;51.046;5.184;2023-09-12T08:20:11;23.90;99.90
15203;DHT22;7702;51.046;5.184;2023-09-12T08:22:37;23.80;99.90
15203;DHT22;7702;51.046;5.184;2023-09-12T08:25:03;23.60;99.90
15203;DHT22;7702;51.046;5.184;2023-09-12T08:27:30;23.80;99.90
15203;DHT22;7702;51.046;5.184;2023-09-12T08:29:56;23.80;99.90
15203;DHT22;7702;51.046;5.184;2023-09-12T08:32:22;23.70;99.90
15203;DHT22;7702;51.046;5.184;2023-09-12T08:34:47;23.70;99.90
15203;DHT22;7702;51.046;5.184;2023-09-12T08:37:13;23.60;99.90
15203;DHT22;7702;51.046;5.184;2023-09-12T08:39:43;23.60;99.90
15203;DHT22;7702;51.046;5.184;2023-09-12T08:42:14;23.70;99.90
15203;DHT22;7702;51.046;5.184;2023-09-12T08:44:43;23.90;99.90
15203;DHT22;7702;51.046;5.184;2023-09-12T08:47:09;24.20;99.90
15203;DHT22;7702;51.046;5.184;2023-09-12T08:49:36;24.40;99.90
15203;DHT22;7702;51.046;5.184;2023-09-12T08:52:08;24.10;99.90
15203;DHT22;7702;51.046;5.184;2023-09-12T08:54:34;24.10;99.90
15203;DHT22;7702;51.046;5.184;2023-09-12T08:57:01;24.30;99.90
15203;DHT22;7702;51.046;5.184;2023-09-12T08:59:33;24.20;99.90
15203;DHT22;7702;51.046;5.184;2023-09-12T09:02:00;24.30;99.90
15203;DHT22;7702;51.046;5.184;2023-09-12T09:04:29;24.30;99.90
15203;DHT22;7702;51.046;5.184;2023-09-12T09:06:58;24.30;99.90
15203;DHT22;7702;51.046;5.184;2023-09-12T09:09:23;24.50;99.90
15203;DHT22;7702;51.046;5.184;2023-09-12T09:11:50;24.80;99.90
15203;DHT22;7702;51.046;5.184;2023-09-12T09:14:15;25.30;99.90
15203;DHT22;7702;51.046;5.184;2023-09-12T09:16:41;25.10;99.90
15203;DHT22;7702;51.046;5.184;2023-09-12T09:19:07;25.40;99.90
15203;DHT22;7702;51.046;5.184;2023-09-12T09:21:36;25.00;99.90
15203;DHT22;7702;51.046;5.184;2023-09-12T09:24:07;25.10;99.90
15203;DHT22;7702;51.046;5.184;2023-09-12T09:26:45;25.40;99.90
15203;DHT22;7702;51.046;5.184;2023-09-12T09:29:14;25.20;99.90
15203;DHT22;7702;51.046;5.184;2023-09-12T09:31:41;25.20;99.90
15203;DHT22;7702;51.046;5.184;2023-09-12T09:34:17;25.40;99.90
15203;DHT22;7702;51.046;5.184;2023-09-12T09:36:47;25.70;99.90
15203;DHT22;7702;51.046;5.184;2023-09-12T09:39:14;25.10;99.90
15203;DHT22;7702;51.046;5.184;2023-09-12T09:41:41;24.60;99.90
15203;DHT22;7702;51.046;5.184;2023-09-12T09:44:09;24.50;99.90
15203;DHT22;7702;51.046;5.184;2023-09-12T09:46:37;25.00;99.90
15203;DHT22;7702;51.046;5.184;2023-09-12T09:49:03;25.20;99.90
15203;DHT22;7702;51.046;5.184;2023-09-12T09:51:30;25.50;99.90
15203;DHT22;7702;51.046;5.184;2023-09-12T09:53:57;25.70;99.90
15203;DHT22;7702;51.046;5.184;2023-09-12T09:56:24;26.10;99.90
15203;DHT22;7702;51.046;5.184;2023-09-12T09:58:55;26.30;99.90
15203;DHT22;7702;51.046;5.184;2023-09-12T10:01:28;26.20;99.90
15203;DHT22;7702;51.046;5.184;2023-09-12T10:03:59;25.80;99.90
15203;DHT22;7702;51.046;5.184;2023-09-12T10:06:27;25.60;99.90
15203;DHT22;7702;51.046;5.184;2023-09-12T10:08:53;26.10;99.90
15203;DHT22;7702;51.046;5.184;2023-09-12T10:11:25;26.70;99.90
15203;DHT22;7702;51.046;5.184;2023-09-12T10:13:54;26.90;99.90
15203;DHT22;7702;51.046;5.184;2023-09-12T10:16:25;27.40;99.90
15203;DHT22;7702;51.046;5.184;2023-09-12T10:19:23;28.00;99.90
15203;DHT22;7702;51.046;5.184;2023-09-12T10:22:01;28.50;99.90
15203;DHT22;7702;51.046;5.184;2023-09-12T10:24:29;29.40;99.90
15203;DHT22;7702;51.046;5.184;2023-09-12T10:26:57;29.20;99.90
15203;DHT22;7702;51.046;5.184;2023-09-12T10:29:22;29.30;99.90
15203;DHT22;7702;51.046;5.184;2023-09-12T10:31:49;29.70;99.90
15203;DHT22;7702;51.046;5.184;2023-09-12T10:34:15;29.90;99.90
15203;DHT22;7702;51.046;5.184;2023-09-12T10:36:42;29.70;99.90
15203;DHT22;7702;51.046;5.184;2023-09-12T10:39:10;29.40;99.90
15203;DHT22;7702;51.046;5.184;2023-09-12T10:41:40;28.90;99.90
15203;DHT22;7702;51.046;5.184;2023-09-12T10:44:26;29.10;99.90
15203;DHT22;7702;51.046;5.184;2023-09-12T10:46:52;30.00;99.90
15203;DHT22;7702;51.046;5.184;2023-09-12T10:49:22;30.30;99.90
15203;DHT22;7702;51.046;5.184;2023-09-12T10:51:47;30.40;99.90
15203;DHT22;7702;51.046;5.184;2023-09-12T10:54:24;30.20;99.90
15203;DHT22;7702;51.046;5.184;2023-09-12T10:57:06;30.00;99.90
15203;DHT22;7702;51.046;5.184;2023-09-12T10:59:32;29.50;99.90
15203;DHT22;7702;51.046;5.184;2023-09-12T11:05:02;29.50;99.90
15203;DHT22;7702;51.046;5.184;2023-09-12T11:07:43;29.90;99.90
15203;DHT22;7702;51.046;5.184;2023-09-12T11:12:42;30.00;99.90
15203;DHT22;7702;51.046;5.184;2023-09-12T11:15:08;29.80;99.90
15203;DHT22;7702;51.046;5.184;2023-09-12T11:17:46;29.70;99.90
15203;DHT22;7702;51.046;5.184;2023-09-12T11:20:13;29.90;99.90
15203;DHT22;7702;51.046;5.184;2023-09-12T11:22:44;30.00;99.90
15203;DHT22;7702;51.046;5.184;2023-09-12T11:30:23;29.90;99.90
15203;DHT22;7702;51.046;5.184;2023-09-12T11:32:51;30.30;99.90
15203;DHT22;7702;51.046;5.184;2023-09-12T11:35:22;30.90;99.90
15203;DHT22;7702;51.046;5.184;2023-09-12T11:37:57;31.10;99.90
15203;DHT22;7702;51.046;5.184;2023-09-12T11:40:43;31.40;99.90
15203;DHT22;7702;51.046;5.184;2023-09-12T11:43:26;31.20;99.90
15203;DHT22;7702;51.046;5.184;2023-09-12T11:51:48;31.50;99.90
15203;DHT22;7702;51.046;5.184;2023-09-12T11:54:24;31.30;99.90
15203;DHT22;7702;51.046;5.184;2023-09-12T11:56:50;31.50;99.90
15203;DHT22;7702;51.046;5.184;2023-09-12T11:59:22;31.30;99.90
15203;DHT22;7702;51.046;5.184;2023-09-12T12:01:48;31.10;99.90
15203;DHT22;7702;51.046;5.184;2023-09-12T12:04:14;31.10;99.90
15203;DHT22;7702;51.046;5.184;2023-09-12T12:06:40;30.50;99.90
15203;DHT22;7702;51.046;5.184;2023-09-12T12:09:06;31.00;99.90
15203;DHT22;7702;51.046;5.184;2023-09-12T12:11:33;31.30;99.90
15203;DHT22;7702;51.046;5.184;2023-09-12T12:14:09;31.20;99.90
15203;DHT22;7702;51.046;5.184;2023-09-12T12:16:35;31.30;99.90
15203;DHT22;7702;51.046;5.184;2023-09-12T12:19:01;31.20;99.90
15203;DHT22;7702;51.046;5.184;2023-09-12T12:21:27;31.60;99.90
15203;DHT22;7702;51.046;5.184;2023-09-12T12:24:03;32.30;99.90
15203;DHT22;7702;51.046;5.184;2023-09-12T12:26:33;32.80;99.70
15203;DHT22;7702;51.046;5.184;2023-09-12T12:29:05;33.00;96.60
15203;DHT22;7702;51.046;5.184;2023-09-12T12:31:31;33.10;97.00
15203;DHT22;7702;51.046;5.184;2023-09-12T12:33:57;32.70;98.90
15203;DHT22;7702;51.046;5.184;2023-09-12T12:36:25;32.80;97.10
15203;DHT22;7702;51.046;5.184;2023-09-12T12:38:51;32.00;98.20
15203;DHT22;7702;51.046;5.184;2023-09-12T12:41:29;31.30;99.50
15203;DHT22;7702;51.046;5.184;2023-09-12T12:44:01;30.80;98.40
15203;DHT22;7702;51.046;5.184;2023-09-12T12:46:28;29.60;99.90
15203;DHT22;7702;51.046;5.184;2023-09-12T12:48:54;29.60;99.90
15203;DHT22;7702;51.046;5.184;2023-09-12T12:51:21;29.70;99.90
15203;DHT22;7702;51.046;5.184;2023-09-12T12:54:03;30.30;99.90
15203;DHT22;7702;51.046;5.184;2023-09-12T12:56:30;29.50;99.90
15203;DHT22;7702;51.046;5.184;2023-09-12T12:58:57;29.50;99.90
15203;DHT22;7702;51.046;5.184;2023-09-12T13:01:24;30.60;99.90
15203;DHT22;7702;51.046;5.184;2023-09-12T13:03:50;30.80;99.90
15203;DHT22;7702;51.046;5.184;2023-09-12T13:06:17;30.10;99.90
15203;DHT22;7702;51.046;5.184;2023-09-12T13:08:46;31.00;99.90
15203;DHT22;7702;51.046;5.184;2023-09-12T13:11:13;32.00;99.40
15203;DHT22;7702;51.046;5.184;2023-09-12T13:13:40;32.70;98.30
15203;DHT22;7702;51.046;5.184;2023-09-12T13:16:07;33.60;95.30
15203;DHT22;7702;51.046;5.184;2023-09-12T13:18:36;33.70;95.20
15203;DHT22;7702;51.046;5.184;2023-09-12T13:21:02;33.90;94.80
15203;DHT22;7702;51.046;5.184;2023-09-12T13:23:28;33.20;94.60
15203;DHT22;7702;51.046;5.184;2023-09-12T13:25:55;32.10;95.60
15203;DHT22;7702;51.046;5.184;2023-09-12T13:28:21;31.40;98.30
15203;DHT22;7702;51.046;5.184;2023-09-12T13:30:54;29.90;99.90
15203;DHT22;7702;51.046;5.184;2023-09-12T13:33:20;29.20;99.90
15203;DHT22;7702;51.046;5.184;2023-09-12T13:35:47;28.80;99.90
15203;DHT22;7702;51.046;5.184;2023-09-12T13:38:13;28.80;99.90
15203;DHT22;7702;51.046;5.184;2023-09-12T13:40:40;28.80;99.90
15203;DHT22;7702;51.046;5.184;2023-09-12T13:43:06;28.40;99.90
15203;DHT22;7702;51.046;5.184;2023-09-12T13:45:32;28.30;99.90
15203;DHT22;7702;51.046;5.184;2023-09-12T13:47:59;27.80;99.90
15203;DHT22;7702;51.046;5.184;2023-09-12T13:50:25;27.90;99.90
15203;DHT22;7702;51.046;5.184;2023-09-12T13:52:54;28.10;99.90
15203;DHT22;7702;51.046;5.184;2023-09-12T13:55:21;28.00;99.90
15203;DHT22;7702;51.046;5.184;2023-09-12T13:57:47;27.50;99.90
15203;DHT22;7702;51.046;5.184;2023-09-12T14:00:13;27.50;99.90
15203;DHT22;7702;51.046;5.184;2023-09-12T14:02:39;27.70;99.90
15203;DHT22;7702;51.046;5.184;2023-09-12T14:05:05;27.60;99.90
15203;DHT22;7702;51.046;5.184;2023-09-12T14:07:30;27.70;99.90
15203;DHT22;7702;51.046;5.184;2023-09-12T14:09:56;28.10;99.90
15203;DHT22;7702;51.046;5.184;2023-09-12T14:12:23;27.70;99.90
15203;DHT22;7702;51.046;5.184;2023-09-12T14:14:49;27.50;99.90
15203;DHT22;7702;51.046;5.184;2023-09-12T14:17:15;27.50;99.90
15203;DHT22;7702;51.046;5.184;2023-09-12T14:19:41;27.30;99.90
15203;DHT22;7702;51.046;5.184;2023-09-12T14:22:06;27.20;99.90
15203;DHT22;7702;51.046;5.184;2023-09-12T14:24:32;27.00;99.90
15203;DHT22;7702;51.046;5.184;2023-09-12T14:26:58;26.90;99.90
15203;DHT22;7702;51.046;5.184;2023-09-12T14:29:24;27.00;99.90
15203;DHT22;7702;51.046;5.184;2023-09-12T14:31:52;27.40;99.90
15203;DHT22;7702;51.046;5.184;2023-09-12T14:34:27;28.00;99.90
15203;DHT22;7702;51.046;5.184;2023-09-12T14:36:56;28.40;99.90
15203;DHT22;7702;51.046;5.184;2023-09-12T14:39:22;28.50;99.90
15203;DHT22;7702;51.046;5.184;2023-09-12T14:41:48;28.60;99.90
15203;DHT22;7702;51.046;5.184;2023-09-12T14:44:26;28.30;99.90
15203;DHT22;7702;51.046;5.184;2023-09-12T14:46:58;27.80;99.90
15203;DHT22;7702;51.046;5.184;2023-09-12T14:49:24;27.40;99.90
15203;DHT22;7702;51.046;5.184;2023-09-12T14:51:49;27.30;99.90
15203;DHT22;7702;51.046;5.184;2023-09-12T14:54:15;27.40;99.90
15203;DHT22;7702;51.046;5.184;2023-09-12T14:56:41;27.40;99.90
15203;DHT22;7702;51.046;5.184;2023-09-12T14:59:07;27.10;99.90
15203;DHT22;7702;51.046;5.184;2023-09-12T15:01:34;26.70;99.90
15203;DHT22;7702;51.046;5.184;2023-09-12T15:04:02;26.60;99.90
15203;DHT22;7702;51.046;5.184;2023-09-12T15:06:28;26.50;99.90
15203;DHT22;7702;51.046;5.184;2023-09-12T15:08:58;26.30;99.90
15203;DHT22;7702;51.046;5.184;2023-09-12T15:11:24;26.20;99.90
15203;DHT22;7702;51.046;5.184;2023-09-12T15:13:50;26.20;99.90
15203;DHT22;7702;51.046;5.184;2023-09-12T15:16:16;25.90;99.90
15203;DHT22;7702;51.046;5.184;2023-09-12T15:18:42;25.70;99.90
15203;DHT22;7702;51.046;5.184;2023-09-12T15:21:07;25.70;99.90
15203;DHT22;7702;51.046;5.184;2023-09-12T15:23:34;25.90;99.90
15203;DHT22;7702;51.046;5.184;2023-09-12T15:25:59;25.80;99.90
15203;DHT22;7702;51.046;5.184;2023-09-12T15:28:25;25.90;99.90
15203;DHT22;7702;51.046;5.184;2023-09-12T15:30:50;25.90;99.90
15203;DHT22;7702;51.046;5.184;2023-09-12T15:33:16;25.80;99.90
15203;DHT22;7702;51.046;5.184;2023-09-12T15:35:42;25.70;99.90
15203;DHT22;7702;51.046;5.184;2023-09-12T15:38:08;25.70;99.90
15203;DHT22;7702;51.046;5.184;2023-09-12T15:40:33;25.60;99.90
15203;DHT22;7702;51.046;5.184;2023-09-12T15:42:59;25.40;99.90
15203;DHT22;7702;51.046;5.184;2023-09-12T15:45:25;25.20;99.90
15203;DHT22;7702;51.046;5.184;2023-09-12T15:47:50;25.10;99.90
15203;DHT22;7702;51.046;5.184;2023-09-12T15:50:16;25.00;99.90
15203;DHT22;7702;51.046;5.184;2023-09-12T15:52:42;25.00;99.90
15203;DHT22;7702;51.046;5.184;2023-09-12T15:55:09;25.00;99.90
15203;DHT22;7702;51.046;5.184;2023-09-12T15:57:37;25.00;99.90
15203;DHT22;7702;51.046;5.184;2023-09-12T16:00:06;24.80;99.90
15203;DHT22;7702;51.046;5.184;2023-09-12T16:02:37;24.60;99.90
15203;DHT22;7702;51.046;5.184;2023-09-12T16:05:03;24.40;99.90
15203;DHT22;7702;51.046;5.184;2023-09-12T16:07:29;24.00;99.90
15203;DHT22;7702;51.046;5.184;2023-09-12T16:09:55;23.50;99.90